Time,TemperatureF,DewpointF,PressureIn,WindDirection,WindDirectionDegrees,WindSpeedMPH,WindSpeedGustMPH,Humidity,HourlyPrecipIn,Conditions,Clouds,dailyrainin,SoftwareType,DateUTC
2013-09-14 00:03:00,55.0,54.5,29.81,West,274,4.0,18.0,98,0.00,,,0.01,meteohub,2013-09-14 07:03:00,
2013-09-14 00:08:00,55.0,54.5,29.80,WSW,253,8.0,18.0,98,0.00,,,0.00,meteohub,2013-09-14 07:08:00,
2013-09-14 00:13:00,55.0,54.5,29.81,West,275,14.0,18.0,98,0.00,,,0.00,meteohub,2013-09-14 07:13:00,
2013-09-14 00:19:00,55.0,54.5,29.81,West,276,10.0,17.0,98,0.00,,,0.00,meteohub,2013-09-14 07:19:00,
2013-09-14 00:24:00,55.0,54.5,29.81,WNW,283,10.0,18.0,98,0.00,,,0.00,meteohub,2013-09-14 07:24:00,
2013-09-14 00:29:00,55.0,54.5,29.81,West,266,15.0,18.0,98,0.00,,,0.00,meteohub,2013-09-14 07:29:00,
2013-09-14 00:34:00,55.0,54.5,29.81,WNW,283,6.0,15.0,98,0.00,,,0.00,meteohub,2013-09-14 07:34:00,
2013-09-14 00:39:00,55.0,54.5,29.81,WSW,257,7.0,17.0,98,0.00,,,0.00,meteohub,2013-09-14 07:39:00,
2013-09-14 00:44:00,55.0,54.5,29.81,West,262,6.0,17.0,98,0.00,,,0.00,meteohub,2013-09-14 07:44:00,
2013-09-14 00:49:00,55.0,54.5,29.81,WNW,297,8.0,15.0,98,0.00,,,0.00,meteohub,2013-09-14 07:49:00,
2013-09-14 00:54:00,55.0,54.5,29.81,West,274,10.0,20.0,98,0.00,,,0.00,meteohub,2013-09-14 07:54:00,
2013-09-14 00:59:00,55.0,54.5,29.81,West,274,13.0,20.0,98,0.00,,,0.00,meteohub,2013-09-14 07:59:00,
2013-09-14 01:04:00,55.0,54.5,29.80,West,269,11.0,20.0,98,0.00,,,0.00,meteohub,2013-09-14 08:04:00,
2013-09-14 01:09:00,55.0,54.5,29.81,WNW,290,3.0,15.0,98,0.00,,,0.00,meteohub,2013-09-14 08:09:00,
2013-09-14 01:14:00,55.0,54.5,29.81,NW,318,9.0,15.0,98,0.00,,,0.00,meteohub,2013-09-14 08:14:00,
2013-09-14 01:19:00,55.0,54.5,29.81,WNW,285,4.0,21.0,98,0.00,,,0.00,meteohub,2013-09-14 08:19:00,
2013-09-14 01:24:00,55.0,54.5,29.81,West,262,6.0,21.0,98,0.00,,,0.00,meteohub,2013-09-14 08:24:00,
2013-09-14 01:29:00,55.0,54.5,29.81,West,276,2.0,16.0,98,0.00,,,0.00,meteohub,2013-09-14 08:29:00,
2013-09-14 01:34:00,55.0,54.5,29.81,West,277,8.0,19.0,98,0.00,,,0.00,meteohub,2013-09-14 08:34:00,
2013-09-14 01:39:00,55.0,54.5,29.81,WSW,253,4.0,19.0,98,0.00,,,0.00,meteohub,2013-09-14 08:39:00,
2013-09-14 01:44:00,55.0,54.5,29.81,West,273,8.0,14.0,98,0.00,,,0.00,meteohub,2013-09-14 08:44:00,
2013-09-14 01:49:00,55.0,54.5,29.80,West,271,13.0,17.0,98,0.00,,,0.00,meteohub,2013-09-14 08:49:00,
2013-09-14 01:54:00,55.0,54.5,29.80,West,266,6.0,18.0,98,0.00,,,0.00,meteohub,2013-09-14 08:54:00,
2013-09-14 01:59:00,55.0,54.5,29.80,WNW,283,3.0,18.0,98,0.00,,,0.00,meteohub,2013-09-14 08:59:00,
2013-09-14 02:04:00,55.0,54.5,29.80,West,279,7.0,18.0,98,0.00,,,0.00,meteohub,2013-09-14 09:04:00,
2013-09-14 02:09:00,55.0,54.5,29.80,West,272,5.0,19.0,98,0.00,,,0.00,meteohub,2013-09-14 09:09:00,
2013-09-14 02:14:00,55.0,54.5,29.80,WNW,285,6.0,19.0,98,0.00,,,0.00,meteohub,2013-09-14 09:14:00,
2013-09-14 02:19:00,54.9,54.3,29.80,West,281,6.0,17.0,98,0.00,,,0.00,meteohub,2013-09-14 09:19:00,
2013-09-14 02:24:00,55.0,54.5,29.80,West,268,6.0,17.0,98,0.00,,,0.00,meteohub,2013-09-14 09:24:00,
2013-09-14 02:29:00,54.9,54.3,29.80,West,278,9.0,17.0,98,0.00,,,0.00,meteohub,2013-09-14 09:29:00,
2013-09-14 02:35:00,54.9,54.3,29.80,WSW,252,10.0,18.0,98,0.00,,,0.00,meteohub,2013-09-14 09:35:00,
2013-09-14 02:40:00,55.0,54.5,29.80,WSW,245,4.0,18.0,98,0.00,,,0.00,meteohub,2013-09-14 09:40:00,
2013-09-14 02:45:00,55.0,54.5,29.80,West,264,10.0,18.0,98,0.00,,,0.00,meteohub,2013-09-14 09:45:00,
2013-09-14 02:50:00,54.9,54.3,29.80,West,274,19.0,19.0,98,0.00,,,0.00,meteohub,2013-09-14 09:50:00,
2013-09-14 02:55:00,54.9,54.3,29.79,WNW,282,4.0,17.0,98,0.00,,,0.00,meteohub,2013-09-14 09:55:00,
2013-09-14 03:00:00,54.9,54.3,29.80,WNW,291,4.0,20.0,98,0.00,,,0.00,meteohub,2013-09-14 10:00:00,
2013-09-14 03:05:00,55.0,54.5,29.80,West,266,3.0,20.0,98,0.00,,,0.00,meteohub,2013-09-14 10:05:00,
2013-09-14 03:10:00,55.0,54.5,29.80,West,259,9.0,14.0,98,0.00,,,0.00,meteohub,2013-09-14 10:10:00,
2013-09-14 03:15:00,55.0,54.5,29.79,WSW,238,14.0,14.0,98,0.00,,,0.00,meteohub,2013-09-14 10:15:00,
2013-09-14 03:20:00,55.0,54.5,29.79,West,280,9.0,15.0,98,0.00,,,0.00,meteohub,2013-09-14 10:20:00,
2013-09-14 03:25:00,55.0,54.5,29.79,WNW,284,13.0,17.0,98,0.00,,,0.00,meteohub,2013-09-14 10:25:00,
2013-09-14 03:30:00,54.9,54.3,29.79,WNW,282,8.0,17.0,98,0.00,,,0.00,meteohub,2013-09-14 10:30:00,
2013-09-14 03:35:00,54.9,54.3,29.80,West,267,7.0,17.0,98,0.00,,,0.00,meteohub,2013-09-14 10:35:00,
2013-09-14 03:40:00,55.0,54.5,29.80,West,266,3.0,17.0,98,0.00,,,0.00,meteohub,2013-09-14 10:40:00,
2013-09-14 03:45:00,55.0,54.5,29.79,West,266,12.0,13.0,98,0.00,,,0.00,meteohub,2013-09-14 10:45:00,
2013-09-14 03:50:00,54.9,54.3,29.79,West,269,2.0,15.0,98,0.00,,,0.00,meteohub,2013-09-14 10:50:00,
2013-09-14 03:55:00,54.9,54.3,29.79,West,274,8.0,18.0,98,0.00,,,0.00,meteohub,2013-09-14 10:55:00,
2013-09-14 04:00:00,54.9,54.3,29.79,WNW,297,12.0,18.0,98,0.00,,,0.00,meteohub,2013-09-14 11:00:00,
2013-09-14 04:05:00,54.9,54.3,29.79,West,268,6.0,18.0,98,0.00,,,0.00,meteohub,2013-09-14 11:05:00,
2013-09-14 04:10:00,54.7,54.1,29.79,WNW,290,3.0,16.0,98,0.00,,,0.00,meteohub,2013-09-14 11:10:00,
2013-09-14 04:15:00,54.7,54.1,29.79,WNW,284,5.0,19.0,98,0.00,,,0.00,meteohub,2013-09-14 11:15:00,
2013-09-14 04:20:00,54.9,54.3,29.79,West,274,2.0,19.0,98,0.00,,,0.00,meteohub,2013-09-14 11:20:00,
2013-09-14 04:25:00,54.7,54.1,29.80,WNW,285,9.0,19.0,98,0.00,,,0.00,meteohub,2013-09-14 11:25:00,
2013-09-14 04:30:00,54.7,54.1,29.79,West,269,6.0,18.0,98,0.00,,,0.00,meteohub,2013-09-14 11:30:00,
2013-09-14 04:35:00,54.7,54.1,29.80,WSW,250,7.0,15.0,98,0.00,,,0.00,meteohub,2013-09-14 11:35:00,
2013-09-14 04:40:00,54.7,54.1,29.80,WNW,288,7.0,13.0,98,0.00,,,0.00,meteohub,2013-09-14 11:40:00,
2013-09-14 04:45:00,54.5,54.0,29.80,WSW,249,10.0,15.0,98,0.00,,,0.00,meteohub,2013-09-14 11:45:00,
2013-09-14 04:50:00,54.3,53.8,29.80,West,260,1.0,16.0,98,0.00,,,0.00,meteohub,2013-09-14 11:50:00,
2013-09-14 04:55:00,54.3,53.8,29.80,West,277,6.0,16.0,98,0.00,,,0.00,meteohub,2013-09-14 11:55:00,
2013-09-14 05:00:00,54.3,53.8,29.80,WSW,251,8.0,16.0,98,0.00,,,0.00,meteohub,2013-09-14 12:00:00,
2013-09-14 05:06:00,54.3,53.8,29.80,West,264,8.0,16.0,98,0.00,,,0.00,meteohub,2013-09-14 12:06:00,
2013-09-14 05:11:00,54.3,53.8,29.80,West,266,7.0,15.0,98,0.00,,,0.00,meteohub,2013-09-14 12:11:00,
2013-09-14 05:16:00,54.3,53.8,29.80,West,280,5.0,15.0,98,0.00,,,0.00,meteohub,2013-09-14 12:16:00,
2013-09-14 05:21:00,54.3,53.8,29.80,WNW,303,4.0,15.0,98,0.00,,,0.00,meteohub,2013-09-14 12:21:00,
2013-09-14 05:26:00,54.1,53.6,29.80,West,271,5.0,17.0,98,0.00,,,0.00,meteohub,2013-09-14 12:26:00,
2013-09-14 05:31:00,54.1,53.6,29.80,WSW,255,2.0,17.0,98,0.00,,,0.00,meteohub,2013-09-14 12:31:00,
2013-09-14 05:36:00,54.1,53.6,29.80,West,272,14.0,17.0,98,0.00,,,0.00,meteohub,2013-09-14 12:36:00,
2013-09-14 05:41:00,54.1,53.6,29.81,West,272,6.0,16.0,98,0.00,,,0.00,meteohub,2013-09-14 12:41:00,
2013-09-14 05:46:00,54.1,53.6,29.80,West,280,7.0,15.0,98,0.00,,,0.00,meteohub,2013-09-14 12:46:00,
2013-09-14 05:51:00,54.1,53.6,29.80,West,279,6.0,17.0,98,0.00,,,0.00,meteohub,2013-09-14 12:51:00,
2013-09-14 05:56:00,54.1,53.6,29.80,WNW,284,4.0,17.0,98,0.00,,,0.00,meteohub,2013-09-14 12:56:00,
2013-09-14 06:01:00,54.0,53.4,29.81,WSW,249,6.0,17.0,98,0.00,,,0.00,meteohub,2013-09-14 13:01:00,
2013-09-14 06:06:00,54.1,53.6,29.81,West,269,8.0,15.0,98,0.00,,,0.00,meteohub,2013-09-14 13:06:00,
2013-09-14 06:11:00,54.1,53.6,29.81,West,269,3.0,15.0,98,0.00,,,0.00,meteohub,2013-09-14 13:11:00,
2013-09-14 06:16:00,54.1,53.6,29.81,WNW,286,6.0,15.0,98,0.00,,,0.00,meteohub,2013-09-14 13:16:00,
2013-09-14 06:21:00,54.3,53.8,29.81,WSW,258,4.0,15.0,98,0.00,,,0.00,meteohub,2013-09-14 13:21:00,
2013-09-14 06:26:00,54.3,53.8,29.81,West,279,8.0,15.0,98,0.00,,,0.00,meteohub,2013-09-14 13:26:00,
2013-09-14 06:31:00,54.7,54.1,29.81,WNW,286,7.0,14.0,98,0.00,,,0.00,meteohub,2013-09-14 13:31:00,
2013-09-14 06:36:00,54.7,54.1,29.81,WNW,289,7.0,15.0,98,0.00,,,0.00,meteohub,2013-09-14 13:36:00,
2013-09-14 06:41:00,54.7,54.1,29.81,West,274,7.0,15.0,98,0.00,,,0.00,meteohub,2013-09-14 13:41:00,
2013-09-14 06:46:00,54.9,54.3,29.81,WNW,300,8.0,15.0,98,0.00,,,0.00,meteohub,2013-09-14 13:46:00,
2013-09-14 06:51:00,54.9,54.3,29.81,WNW,284,3.0,13.0,98,0.00,,,0.00,meteohub,2013-09-14 13:51:00,
2013-09-14 06:56:00,54.9,54.3,29.81,WNW,291,7.0,17.0,98,0.00,,,0.00,meteohub,2013-09-14 13:56:00,
2013-09-14 07:01:00,55.0,54.5,29.81,West,277,7.0,17.0,98,0.00,,,0.00,meteohub,2013-09-14 14:01:00,
2013-09-14 07:06:00,55.0,54.5,29.81,WSW,254,9.0,17.0,98,0.00,,,0.00,meteohub,2013-09-14 14:06:00,
2013-09-14 07:11:00,55.0,54.5,29.81,West,269,2.0,16.0,98,0.00,,,0.00,meteohub,2013-09-14 14:11:00,
2013-09-14 07:16:00,55.0,54.5,29.81,WNW,285,9.0,18.0,98,0.00,,,0.00,meteohub,2013-09-14 14:16:00,
2013-09-14 07:21:00,55.0,54.5,29.81,West,271,12.0,18.0,98,0.00,,,0.00,meteohub,2013-09-14 14:21:00,
2013-09-14 07:26:00,55.0,54.5,29.81,West,273,10.0,17.0,98,0.00,,,0.00,meteohub,2013-09-14 14:26:00,
2013-09-14 07:32:00,55.0,54.5,29.81,West,264,13.0,17.0,98,0.00,,,0.00,meteohub,2013-09-14 14:32:00,
2013-09-14 07:37:00,55.0,54.5,29.81,West,264,10.0,17.0,98,0.00,,,0.00,meteohub,2013-09-14 14:37:00,
2013-09-14 07:42:00,55.0,54.5,29.81,West,270,12.0,16.0,98,0.00,,,0.00,meteohub,2013-09-14 14:42:00,
2013-09-14 07:47:00,55.0,54.5,29.82,West,279,11.0,17.0,98,0.00,,,0.00,meteohub,2013-09-14 14:47:00,
2013-09-14 07:52:00,55.0,54.5,29.81,WSW,251,2.0,17.0,98,0.00,,,0.00,meteohub,2013-09-14 14:52:00,
2013-09-14 07:57:00,55.0,54.5,29.82,WNW,283,6.0,17.0,98,0.00,,,0.00,meteohub,2013-09-14 14:57:00,
2013-09-14 08:02:00,55.0,54.5,29.82,West,271,3.0,17.0,98,0.00,,,0.00,meteohub,2013-09-14 15:02:00,
2013-09-14 08:07:00,54.9,54.3,29.82,West,264,7.0,17.0,98,0.00,,,0.00,meteohub,2013-09-14 15:07:00,
2013-09-14 08:12:00,54.9,54.3,29.82,WNW,295,3.0,17.0,98,0.00,,,0.00,meteohub,2013-09-14 15:12:00,
2013-09-14 08:17:00,55.0,54.5,29.82,West,266,7.0,19.0,98,0.00,,,0.00,meteohub,2013-09-14 15:17:00,
2013-09-14 08:22:00,54.9,54.3,29.82,West,278,9.0,19.0,98,0.00,,,0.00,meteohub,2013-09-14 15:22:00,
2013-09-14 08:27:00,54.9,54.3,29.82,West,260,4.0,19.0,98,0.00,,,0.00,meteohub,2013-09-14 15:27:00,
2013-09-14 08:32:00,55.0,54.5,29.82,West,272,4.0,19.0,98,0.00,,,0.00,meteohub,2013-09-14 15:32:00,
2013-09-14 08:37:00,55.0,54.5,29.82,WNW,285,15.0,19.0,98,0.00,,,0.00,meteohub,2013-09-14 15:37:00,
2013-09-14 08:42:00,55.0,54.5,29.82,West,262,4.0,19.0,98,0.00,,,0.00,meteohub,2013-09-14 15:42:00,
2013-09-14 08:47:00,55.2,54.7,29.82,WSW,258,7.0,19.0,98,0.00,,,0.00,meteohub,2013-09-14 15:47:00,
2013-09-14 08:52:00,55.2,54.7,29.83,WNW,293,2.0,19.0,98,0.00,,,0.00,meteohub,2013-09-14 15:52:00,
2013-09-14 08:57:00,55.2,54.7,29.83,West,266,5.0,19.0,98,0.00,,,0.00,meteohub,2013-09-14 15:57:00,
2013-09-14 09:02:00,55.2,54.7,29.83,WNW,285,3.0,17.0,98,0.00,,,0.00,meteohub,2013-09-14 16:02:00,
2013-09-14 09:07:00,55.2,54.7,29.83,WSW,248,4.0,17.0,98,0.00,,,0.00,meteohub,2013-09-14 16:07:00,
2013-09-14 09:12:00,55.2,54.7,29.83,WNW,299,6.0,16.0,98,0.00,,,0.00,meteohub,2013-09-14 16:12:00,
2013-09-14 09:17:00,55.6,55.0,29.83,West,280,9.0,16.0,98,0.00,,,0.00,meteohub,2013-09-14 16:17:00,
2013-09-14 09:22:00,55.6,55.2,29.83,WSW,255,5.0,16.0,99,0.00,,,0.00,meteohub,2013-09-14 16:22:00,
2013-09-14 09:27:00,55.6,55.2,29.83,West,276,3.0,15.0,99,0.00,,,0.00,meteohub,2013-09-14 16:27:00,
2013-09-14 09:32:00,55.6,55.2,29.83,WNW,285,4.0,15.0,99,0.00,,,0.00,meteohub,2013-09-14 16:32:00,
2013-09-14 09:37:00,55.6,55.2,29.83,West,274,8.0,16.0,99,0.00,,,0.00,meteohub,2013-09-14 16:37:00,
2013-09-14 09:42:00,55.6,55.2,29.83,WNW,283,3.0,17.0,99,0.00,,,0.00,meteohub,2013-09-14 16:42:00,
2013-09-14 09:47:00,55.8,55.4,29.83,West,277,10.0,17.0,99,0.00,,,0.00,meteohub,2013-09-14 16:47:00,
2013-09-14 09:52:00,55.8,55.4,29.83,West,281,6.0,17.0,99,0.00,,,0.00,meteohub,2013-09-14 16:52:00,
2013-09-14 09:57:00,55.6,55.2,29.83,WSW,257,9.0,17.0,99,0.00,,,0.00,meteohub,2013-09-14 16:57:00,
2013-09-14 10:02:00,55.8,55.4,29.83,West,269,5.0,17.0,99,0.00,,,0.00,meteohub,2013-09-14 17:02:00,
2013-09-14 10:07:00,55.8,55.2,29.83,West,273,8.0,17.0,98,0.00,,,0.00,meteohub,2013-09-14 17:07:00,
2013-09-14 10:12:00,55.8,55.4,29.83,WSW,257,9.0,15.0,99,0.00,,,0.00,meteohub,2013-09-14 17:12:00,
2013-09-14 10:17:00,55.6,55.2,29.84,WNW,302,7.0,21.0,99,0.00,,,0.00,meteohub,2013-09-14 17:17:00,
2013-09-14 10:22:00,55.8,55.4,29.84,West,275,9.0,21.0,99,0.00,,,0.00,meteohub,2013-09-14 17:22:00,
2013-09-14 10:27:00,55.8,55.2,29.84,West,273,4.0,21.0,98,0.00,,,0.00,meteohub,2013-09-14 17:27:00,
2013-09-14 10:32:00,55.8,55.4,29.84,West,269,3.0,17.0,99,0.00,,,0.00,meteohub,2013-09-14 17:32:00,
2013-09-14 10:37:00,55.9,55.4,29.84,WSW,239,10.0,16.0,98,0.00,,,0.00,meteohub,2013-09-14 17:37:00,
2013-09-14 10:42:00,55.8,55.2,29.84,WSW,257,3.0,16.0,98,0.00,,,0.00,meteohub,2013-09-14 17:42:00,
2013-09-14 10:47:00,55.9,55.4,29.84,West,279,3.0,16.0,98,0.00,,,0.00,meteohub,2013-09-14 17:47:00,
2013-09-14 10:52:00,55.9,55.4,29.84,West,272,3.0,17.0,98,0.00,,,0.00,meteohub,2013-09-14 17:52:00,
2013-09-14 10:57:00,55.8,55.2,29.84,West,280,5.0,17.0,98,0.00,,,0.00,meteohub,2013-09-14 17:57:00,
2013-09-14 11:02:00,55.9,55.4,29.84,WSW,256,12.0,17.0,98,0.00,,,0.00,meteohub,2013-09-14 18:02:00,
2013-09-14 11:07:00,55.9,55.4,29.84,West,264,12.0,14.0,98,0.00,,,0.00,meteohub,2013-09-14 18:07:00,
2013-09-14 11:12:00,55.8,55.2,29.84,West,273,3.0,17.0,98,0.00,,,0.00,meteohub,2013-09-14 18:12:00,
2013-09-14 11:17:00,55.8,55.2,29.84,WNW,288,5.0,18.0,98,0.00,,,0.00,meteohub,2013-09-14 18:17:00,
2013-09-14 11:22:00,55.9,55.4,29.84,West,265,13.0,18.0,98,0.00,,,0.00,meteohub,2013-09-14 18:22:00,
2013-09-14 11:27:00,55.9,55.4,29.84,West,259,12.0,19.0,98,0.00,,,0.00,meteohub,2013-09-14 18:27:00,
2013-09-14 11:32:00,55.9,55.4,29.84,West,266,6.0,19.0,98,0.00,,,0.00,meteohub,2013-09-14 18:32:00,
2013-09-14 11:37:00,56.1,55.8,29.84,WSW,255,5.0,19.0,99,0.00,,,0.00,meteohub,2013-09-14 18:37:00,
2013-09-14 11:42:00,56.1,55.8,29.84,West,262,7.0,16.0,99,0.00,,,0.00,meteohub,2013-09-14 18:42:00,
2013-09-14 11:47:00,56.1,55.8,29.84,WNW,285,7.0,16.0,99,0.00,,,0.00,meteohub,2013-09-14 18:47:00,
2013-09-14 11:52:00,56.3,55.9,29.84,NW,307,9.0,16.0,99,0.00,,,0.00,meteohub,2013-09-14 18:52:00,
2013-09-14 11:57:00,56.5,56.1,29.84,West,280,9.0,17.0,99,0.00,,,0.00,meteohub,2013-09-14 18:57:00,
2013-09-14 12:02:00,56.5,56.1,29.84,West,266,11.0,17.0,99,0.00,,,0.00,meteohub,2013-09-14 19:02:00,
2013-09-14 12:07:00,56.7,56.3,29.83,WNW,293,4.0,15.0,99,0.00,,,0.00,meteohub,2013-09-14 19:07:00,
2013-09-14 12:12:00,56.7,56.3,29.83,West,276,15.0,18.0,99,0.00,,,0.00,meteohub,2013-09-14 19:12:00,
2013-09-14 12:17:00,56.8,56.5,29.83,WNW,289,12.0,21.0,99,0.00,,,0.00,meteohub,2013-09-14 19:17:00,
2013-09-14 12:22:00,56.8,56.5,29.83,West,274,10.0,21.0,99,0.00,,,0.00,meteohub,2013-09-14 19:22:00,
2013-09-14 12:27:00,56.8,56.5,29.83,West,263,4.0,21.0,99,0.00,,,0.00,meteohub,2013-09-14 19:27:00,
2013-09-14 12:32:00,56.8,56.5,29.83,WNW,282,5.0,17.0,99,0.00,,,0.00,meteohub,2013-09-14 19:32:00,
2013-09-14 12:37:00,57.0,56.7,29.83,West,275,9.0,21.0,99,0.00,,,0.00,meteohub,2013-09-14 19:37:00,
2013-09-14 12:42:00,57.0,56.7,29.83,West,269,2.0,21.0,99,0.00,,,0.00,meteohub,2013-09-14 19:42:00,
2013-09-14 12:47:00,57.0,56.7,29.83,West,278,8.0,17.0,99,0.00,,,0.00,meteohub,2013-09-14 19:47:00,
2013-09-14 12:52:00,57.4,57.0,29.83,West,280,3.0,17.0,99,0.00,,,0.00,meteohub,2013-09-14 19:52:00,
2013-09-14 12:57:00,57.6,57.2,29.83,West,262,5.0,16.0,99,0.00,,,0.00,meteohub,2013-09-14 19:57:00,
2013-09-14 13:02:00,57.7,57.4,29.83,WSW,255,10.0,21.0,99,0.00,,,0.00,meteohub,2013-09-14 20:02:00,
2013-09-14 13:07:00,58.1,57.7,29.83,WNW,289,7.0,21.0,99,0.00,,,0.00,meteohub,2013-09-14 20:07:00,
2013-09-14 13:12:00,58.6,58.3,29.82,West,266,4.0,21.0,99,0.00,,,0.00,meteohub,2013-09-14 20:12:00,
2013-09-14 13:17:00,58.8,58.3,29.82,WSW,258,8.0,21.0,98,0.00,,,0.00,meteohub,2013-09-14 20:17:00,
2013-09-14 13:22:00,58.8,58.3,29.82,WNW,303,14.0,22.0,98,0.00,,,0.00,meteohub,2013-09-14 20:22:00,
2013-09-14 13:27:00,59.0,58.5,29.82,West,271,5.0,22.0,98,0.00,,,0.00,meteohub,2013-09-14 20:27:00,
2013-09-14 13:32:00,59.2,58.6,29.82,West,259,10.0,22.0,98,0.00,,,0.00,meteohub,2013-09-14 20:32:00,
2013-09-14 13:37:00,59.2,58.6,29.82,West,272,13.0,23.0,98,0.00,,,0.00,meteohub,2013-09-14 20:37:00,
2013-09-14 13:42:00,59.2,58.6,29.82,NW,312,2.0,23.0,98,0.00,,,0.00,meteohub,2013-09-14 20:42:00,
2013-09-14 13:47:00,59.4,58.8,29.82,SW,226,7.0,23.0,98,0.00,,,0.00,meteohub,2013-09-14 20:47:00,
2013-09-14 13:52:00,59.4,58.8,29.81,West,278,15.0,23.0,98,0.00,,,0.00,meteohub,2013-09-14 20:52:00,
2013-09-14 13:57:00,59.4,58.5,29.81,WNW,290,8.0,19.0,97,0.00,,,0.00,meteohub,2013-09-14 20:57:00,
2013-09-14 14:02:00,59.4,58.5,29.81,West,259,7.0,19.0,97,0.00,,,0.00,meteohub,2013-09-14 21:02:00,
2013-09-14 14:07:00,59.5,58.6,29.81,WNW,289,0.0,18.0,97,0.00,,,0.00,meteohub,2013-09-14 21:07:00,
2013-09-14 14:12:00,59.9,59.0,29.81,WNW,295,5.0,18.0,97,0.00,,,0.00,meteohub,2013-09-14 21:12:00,
2013-09-14 14:17:00,59.9,59.0,29.81,WNW,283,4.0,16.0,97,0.00,,,0.00,meteohub,2013-09-14 21:17:00,
2013-09-14 14:22:00,59.7,58.8,29.81,WNW,293,10.0,15.0,97,0.00,,,0.00,meteohub,2013-09-14 21:22:00,
2013-09-14 14:27:00,59.7,58.8,29.81,West,262,4.0,15.0,97,0.00,,,0.00,meteohub,2013-09-14 21:27:00,
2013-09-14 14:32:00,59.7,58.8,29.81,West,264,10.0,16.0,97,0.00,,,0.00,meteohub,2013-09-14 21:32:00,
2013-09-14 14:37:00,60.1,59.0,29.81,WSW,243,4.0,16.0,96,0.00,,,0.00,meteohub,2013-09-14 21:37:00,
2013-09-14 14:42:00,60.1,59.0,29.81,West,277,4.0,16.0,96,0.00,,,0.00,meteohub,2013-09-14 21:42:00,
2013-09-14 14:47:00,60.1,58.6,29.81,West,270,7.0,16.0,95,0.00,,,0.00,meteohub,2013-09-14 21:47:00,
2013-09-14 14:52:00,60.1,58.6,29.81,West,264,13.0,17.0,95,0.00,,,0.00,meteohub,2013-09-14 21:52:00,
2013-09-14 14:57:00,60.1,58.3,29.81,West,272,13.0,17.0,94,0.00,,,0.00,meteohub,2013-09-14 21:57:00,
2013-09-14 15:02:00,60.1,58.3,29.81,WNW,300,15.0,17.0,94,0.00,,,0.00,meteohub,2013-09-14 22:02:00,
2013-09-14 15:07:00,59.7,57.9,29.81,West,259,5.0,16.0,94,0.00,,,0.00,meteohub,2013-09-14 22:07:00,
2013-09-14 15:12:00,60.3,58.5,29.80,West,271,10.0,20.0,94,0.00,,,0.00,meteohub,2013-09-14 22:12:00,
2013-09-14 15:17:00,60.4,58.5,29.81,West,271,13.0,20.0,93,0.00,,,0.00,meteohub,2013-09-14 22:17:00,
2013-09-14 15:22:00,60.8,58.8,29.80,WNW,283,14.0,16.0,93,0.00,,,0.00,meteohub,2013-09-14 22:22:00,
2013-09-14 15:27:00,60.4,58.1,29.80,WNW,289,7.0,20.0,92,0.00,,,0.00,meteohub,2013-09-14 22:27:00,
2013-09-14 15:32:00,60.6,58.3,29.80,WSW,244,6.0,20.0,92,0.00,,,0.00,meteohub,2013-09-14 22:32:00,
2013-09-14 15:37:00,61.0,58.6,29.80,West,273,7.0,20.0,92,0.00,,,0.00,meteohub,2013-09-14 22:37:00,
2013-09-14 15:42:00,61.0,58.3,29.80,West,273,11.0,18.0,91,0.00,,,0.00,meteohub,2013-09-14 22:42:00,
2013-09-14 15:47:00,61.2,58.5,29.79,WSW,257,7.0,18.0,91,0.00,,,0.00,meteohub,2013-09-14 22:47:00,
2013-09-14 15:49:00,61.2,58.5,29.80,West,266,7.0,18.0,91,0.00,,,0.00,meteohub,2013-09-14 22:49:00,
2013-09-14 15:54:00,61.2,58.3,29.79,WNW,284,5.0,22.0,90,0.00,,,0.00,meteohub,2013-09-14 22:54:00,
2013-09-14 15:59:00,61.2,58.3,29.79,West,266,12.0,22.0,90,0.00,,,0.00,meteohub,2013-09-14 22:59:00,
2013-09-14 16:04:00,60.8,57.9,29.79,West,278,7.0,22.0,90,0.00,,,0.00,meteohub,2013-09-14 23:04:00,
2013-09-14 16:09:00,61.0,58.1,29.79,West,259,12.0,18.0,90,0.00,,,0.00,meteohub,2013-09-14 23:09:00,
2013-09-14 16:14:00,61.0,58.1,29.78,West,272,11.0,18.0,90,0.00,,,0.00,meteohub,2013-09-14 23:14:00,
2013-09-14 16:19:00,60.6,57.7,29.78,West,276,9.0,18.0,90,0.00,,,0.00,meteohub,2013-09-14 23:19:00,
2013-09-14 16:24:00,60.6,57.7,29.78,West,268,5.0,19.0,90,0.00,,,0.00,meteohub,2013-09-14 23:24:00,
2013-09-14 16:29:00,60.6,57.7,29.78,WNW,283,3.0,19.0,90,0.00,,,0.00,meteohub,2013-09-14 23:29:00,
2013-09-14 16:34:00,60.6,57.7,29.78,West,265,5.0,19.0,90,0.00,,,0.00,meteohub,2013-09-14 23:34:00,
2013-09-14 16:40:00,60.3,57.4,29.78,WNW,282,4.0,17.0,90,0.00,,,0.00,meteohub,2013-09-14 23:40:00,
2013-09-14 16:45:00,60.3,57.4,29.78,WSW,240,12.0,20.0,90,0.00,,,0.00,meteohub,2013-09-14 23:45:00,
2013-09-14 16:50:00,60.1,57.2,29.78,West,272,5.0,20.0,90,0.00,,,0.00,meteohub,2013-09-14 23:50:00,
2013-09-14 16:55:00,60.1,57.2,29.78,West,278,9.0,20.0,90,0.00,,,0.00,meteohub,2013-09-14 23:55:00,
2013-09-14 17:00:00,60.3,57.4,29.78,West,260,3.0,19.0,90,0.00,,,0.00,meteohub,2013-09-15 00:00:00,
2013-09-14 17:05:00,60.3,57.4,29.78,WNW,286,10.0,19.0,90,0.00,,,0.00,meteohub,2013-09-15 00:05:00,
2013-09-14 17:10:00,60.1,57.2,29.78,West,271,1.0,19.0,90,0.00,,,0.00,meteohub,2013-09-15 00:10:00,
2013-09-14 17:15:00,60.1,57.4,29.78,WNW,293,5.0,19.0,91,0.00,,,0.00,meteohub,2013-09-15 00:15:00,
2013-09-14 17:20:00,60.1,57.4,29.78,WNW,283,3.0,17.0,91,0.00,,,0.00,meteohub,2013-09-15 00:20:00,
2013-09-14 17:25:00,60.1,57.4,29.78,West,276,5.0,16.0,91,0.00,,,0.00,meteohub,2013-09-15 00:25:00,
2013-09-14 17:30:00,59.9,57.2,29.78,West,281,5.0,15.0,91,0.00,,,0.00,meteohub,2013-09-15 00:30:00,
2013-09-14 17:35:00,59.9,57.2,29.78,West,264,4.0,15.0,91,0.00,,,0.00,meteohub,2013-09-15 00:35:00,
2013-09-14 17:40:00,59.7,57.0,29.77,WSW,252,8.0,15.0,91,0.00,,,0.00,meteohub,2013-09-15 00:40:00,
2013-09-14 17:45:00,59.5,56.8,29.77,West,271,11.0,16.0,91,0.00,,,0.00,meteohub,2013-09-15 00:45:00,
2013-09-14 17:50:00,59.7,57.0,29.78,West,277,5.0,18.0,91,0.00,,,0.00,meteohub,2013-09-15 00:50:00,
2013-09-14 17:55:00,59.7,57.0,29.78,West,273,6.0,18.0,91,0.00,,,0.00,meteohub,2013-09-15 00:55:00,
2013-09-14 18:00:00,59.7,57.0,29.78,WSW,254,12.0,18.0,91,0.00,,,0.00,meteohub,2013-09-15 01:00:00,
2013-09-14 18:05:00,59.7,57.0,29.77,West,264,4.0,17.0,91,0.00,,,0.00,meteohub,2013-09-15 01:05:00,
2013-09-14 18:11:00,59.5,56.8,29.77,NW,307,3.0,18.0,91,0.00,,,0.00,meteohub,2013-09-15 01:11:00,
2013-09-14 18:16:00,59.2,56.5,29.77,West,273,11.0,18.0,91,0.00,,,0.00,meteohub,2013-09-15 01:16:00,
2013-09-14 18:21:00,59.2,56.8,29.77,West,266,3.0,18.0,92,0.00,,,0.00,meteohub,2013-09-15 01:21:00,
2013-09-14 18:26:00,59.2,56.8,29.77,West,275,9.0,17.0,92,0.00,,,0.00,meteohub,2013-09-15 01:26:00,
2013-09-14 18:31:00,58.8,56.5,29.77,West,262,12.0,17.0,92,0.00,,,0.00,meteohub,2013-09-15 01:31:00,
2013-09-14 18:36:00,58.6,56.3,29.77,WSW,243,2.0,17.0,92,0.00,,,0.00,meteohub,2013-09-15 01:36:00,
2013-09-14 18:41:00,58.5,56.1,29.77,WSW,257,10.0,19.0,92,0.00,,,0.00,meteohub,2013-09-15 01:41:00,
2013-09-14 18:46:00,58.5,56.1,29.77,West,269,3.0,19.0,92,0.00,,,0.00,meteohub,2013-09-15 01:46:00,
2013-09-14 18:51:00,58.3,55.9,29.77,West,266,2.0,20.0,92,0.00,,,0.00,meteohub,2013-09-15 01:51:00,
2013-09-14 18:56:00,57.9,55.9,29.78,West,270,10.0,21.0,93,0.00,,,0.00,meteohub,2013-09-15 01:56:00,
2013-09-14 19:01:00,57.9,55.9,29.78,West,269,10.0,21.0,93,0.00,,,0.00,meteohub,2013-09-15 02:01:00,
2013-09-14 19:06:00,57.9,55.9,29.78,WSW,245,3.0,21.0,93,0.00,,,0.00,meteohub,2013-09-15 02:06:00,
2013-09-14 19:11:00,57.7,55.8,29.77,West,261,4.0,18.0,93,0.00,,,0.00,meteohub,2013-09-15 02:11:00,
2013-09-14 19:16:00,57.7,55.9,29.77,West,259,8.0,18.0,94,0.00,,,0.00,meteohub,2013-09-15 02:16:00,
2013-09-14 19:21:00,57.7,55.9,29.78,WSW,250,8.0,17.0,94,0.00,,,0.00,meteohub,2013-09-15 02:21:00,
2013-09-14 19:26:00,57.7,55.9,29.78,West,271,8.0,17.0,94,0.00,,,0.00,meteohub,2013-09-15 02:26:00,
2013-09-14 19:31:00,57.6,55.8,29.77,West,269,4.0,18.0,94,0.00,,,0.00,meteohub,2013-09-15 02:31:00,
2013-09-14 19:36:00,57.6,55.8,29.78,WNW,283,6.0,18.0,94,0.00,,,0.00,meteohub,2013-09-15 02:36:00,
2013-09-14 19:41:00,57.4,55.6,29.77,West,274,2.0,14.0,94,0.00,,,0.00,meteohub,2013-09-15 02:41:00,
2013-09-14 19:46:00,57.4,55.6,29.77,West,267,16.0,22.0,94,0.00,,,0.00,meteohub,2013-09-15 02:46:00,
2013-09-14 19:52:00,57.4,55.6,29.78,WNW,295,4.0,22.0,94,0.00,,,0.00,meteohub,2013-09-15 02:52:00,
2013-09-14 19:57:00,57.4,55.6,29.78,West,264,4.0,22.0,94,0.00,,,0.00,meteohub,2013-09-15 02:57:00,
2013-09-14 20:02:00,57.4,55.6,29.78,West,268,2.0,21.0,94,0.00,,,0.00,meteohub,2013-09-15 03:02:00,
2013-09-14 20:07:00,57.4,55.6,29.78,WSW,257,6.0,16.0,94,0.00,,,0.00,meteohub,2013-09-15 03:07:00,
2013-09-14 20:12:00,57.4,55.6,29.78,WSW,257,4.0,16.0,94,0.00,,,0.00,meteohub,2013-09-15 03:12:00,
2013-09-14 20:17:00,57.2,55.4,29.78,West,264,6.0,14.0,94,0.00,,,0.00,meteohub,2013-09-15 03:17:00,
2013-09-14 20:22:00,57.2,55.8,29.79,West,276,3.0,14.0,95,0.00,,,0.00,meteohub,2013-09-15 03:22:00,
2013-09-14 20:27:00,57.2,55.8,29.79,WNW,285,6.0,12.0,95,0.00,,,0.00,meteohub,2013-09-15 03:27:00,
2013-09-14 20:32:00,57.2,55.8,29.79,WNW,288,1.0,12.0,95,0.00,,,0.00,meteohub,2013-09-15 03:32:00,
2013-09-14 20:37:00,57.0,55.6,29.79,West,262,6.0,14.0,95,0.00,,,0.00,meteohub,2013-09-15 03:37:00,
2013-09-14 20:42:00,57.0,55.6,29.79,West,271,7.0,14.0,95,0.00,,,0.00,meteohub,2013-09-15 03:42:00,
2013-09-14 20:47:00,57.0,55.6,29.79,SW,226,5.0,14.0,95,0.00,,,0.00,meteohub,2013-09-15 03:47:00,
2013-09-14 20:52:00,57.0,55.6,29.79,West,266,2.0,15.0,95,0.00,,,0.00,meteohub,2013-09-15 03:52:00,
2013-09-14 20:57:00,56.8,55.4,29.78,West,280,4.0,15.0,95,0.00,,,0.00,meteohub,2013-09-15 03:57:00,
2013-09-14 21:01:00,57.0,55.6,29.78,West,265,3.0,14.0,95,0.00,,,0.00,meteohub,2013-09-15 04:01:00,
2013-09-14 21:02:00,57.0,55.6,29.78,West,264,3.0,14.0,95,0.00,,,0.00,meteohub,2013-09-15 04:02:00,
2013-09-14 21:03:00,57.0,55.6,29.78,West,280,6.0,14.0,95,0.00,,,0.00,meteohub,2013-09-15 04:03:00,
2013-09-14 21:05:00,57.0,55.6,29.78,WSW,249,4.0,14.0,95,0.00,,,0.00,meteohub,2013-09-15 04:05:00,
2013-09-14 21:10:00,57.0,55.6,29.79,West,270,2.0,14.0,95,0.00,,,0.00,meteohub,2013-09-15 04:10:00,
2013-09-14 21:15:00,57.0,55.6,29.79,WNW,283,1.0,12.0,95,0.00,,,0.00,meteohub,2013-09-15 04:15:00,
2013-09-14 21:20:00,56.8,55.4,29.79,SW,221,8.0,11.0,95,0.00,,,0.00,meteohub,2013-09-15 04:20:00,
2013-09-14 21:25:00,56.8,55.4,29.79,West,274,5.0,11.0,95,0.00,,,0.00,meteohub,2013-09-15 04:25:00,
2013-09-14 21:30:00,56.8,55.4,29.79,West,268,5.0,12.0,95,0.00,,,0.00,meteohub,2013-09-15 04:30:00,
2013-09-14 21:35:00,56.8,55.4,29.79,WNW,283,3.0,12.0,95,0.00,,,0.00,meteohub,2013-09-15 04:35:00,
2013-09-14 21:40:00,56.8,55.4,29.79,West,261,5.0,13.0,95,0.00,,,0.00,meteohub,2013-09-15 04:40:00,
2013-09-14 21:45:00,56.7,55.2,29.79,West,275,4.0,13.0,95,0.00,,,0.00,meteohub,2013-09-15 04:45:00,
2013-09-14 21:50:00,56.7,55.2,29.79,West,262,4.0,13.0,95,0.00,,,0.00,meteohub,2013-09-15 04:50:00,
2013-09-14 21:55:00,56.7,55.2,29.79,WNW,295,1.0,13.0,95,0.00,,,0.00,meteohub,2013-09-15 04:55:00,
2013-09-14 22:01:00,56.7,55.2,29.79,WSW,256,3.0,19.0,95,0.00,,,0.00,meteohub,2013-09-15 05:01:00,
2013-09-14 22:06:00,56.5,55.0,29.79,WNW,287,1.0,19.0,95,0.00,,,0.00,meteohub,2013-09-15 05:06:00,
2013-09-14 22:11:00,56.5,55.0,29.79,West,268,2.0,19.0,95,0.00,,,0.00,meteohub,2013-09-15 05:11:00,
2013-09-14 22:16:00,56.5,55.0,29.79,West,276,6.0,15.0,95,0.00,,,0.00,meteohub,2013-09-15 05:16:00,
2013-09-14 22:21:00,56.5,55.0,29.79,West,271,5.0,15.0,95,0.00,,,0.00,meteohub,2013-09-15 05:21:00,
2013-09-14 22:26:00,56.5,55.0,29.79,West,281,2.0,17.0,95,0.00,,,0.00,meteohub,2013-09-15 05:26:00,
2013-09-14 22:31:00,56.5,55.0,29.79,WNW,283,3.0,17.0,95,0.00,,,0.00,meteohub,2013-09-15 05:31:00,
2013-09-14 22:36:00,56.5,55.0,29.79,WSW,253,4.0,17.0,95,0.00,,,0.00,meteohub,2013-09-15 05:36:00,
2013-09-14 22:41:00,56.5,55.0,29.79,West,280,10.0,13.0,95,0.00,,,0.00,meteohub,2013-09-15 05:41:00,
2013-09-14 22:46:00,56.3,54.9,29.80,WSW,250,7.0,16.0,95,0.00,,,0.00,meteohub,2013-09-15 05:46:00,
2013-09-14 22:51:00,56.3,54.9,29.80,West,274,9.0,16.0,95,0.00,,,0.00,meteohub,2013-09-15 05:51:00,
2013-09-14 22:56:00,56.1,54.7,29.80,West,276,9.0,16.0,95,0.00,,,0.00,meteohub,2013-09-15 05:56:00,
2013-09-14 23:01:00,56.1,54.7,29.80,West,278,6.0,15.0,95,0.00,,,0.00,meteohub,2013-09-15 06:01:00,
2013-09-14 23:06:00,56.1,54.7,29.80,WSW,250,4.0,15.0,95,0.00,,,0.00,meteohub,2013-09-15 06:06:00,
2013-09-14 23:11:00,56.1,54.7,29.80,WNW,282,10.0,16.0,95,0.00,,,0.00,meteohub,2013-09-15 06:11:00,
2013-09-14 23:16:00,56.1,54.7,29.80,West,266,8.0,16.0,95,0.00,,,0.00,meteohub,2013-09-15 06:16:00,
2013-09-14 23:22:00,56.1,54.7,29.80,NW,316,7.0,17.0,95,0.00,,,0.00,meteohub,2013-09-15 06:22:00,
2013-09-14 23:27:00,56.1,54.7,29.80,WNW,291,10.0,17.0,95,0.00,,,0.00,meteohub,2013-09-15 06:27:00,
2013-09-14 23:32:00,56.3,54.9,29.80,West,272,6.0,17.0,95,0.00,,,0.00,meteohub,2013-09-15 06:32:00,
2013-09-14 23:37:00,56.3,54.9,29.80,West,259,5.0,15.0,95,0.00,,,0.00,meteohub,2013-09-15 06:37:00,
2013-09-14 23:42:00,56.3,54.9,29.80,WSW,257,7.0,23.0,95,0.00,,,0.00,meteohub,2013-09-15 06:42:00,
2013-09-14 23:47:00,56.3,54.9,29.80,WNW,285,4.0,23.0,95,0.00,,,0.00,meteohub,2013-09-15 06:47:00,
2013-09-14 23:52:00,56.3,54.9,29.80,WNW,290,3.0,19.0,95,0.00,,,0.00,meteohub,2013-09-15 06:52:00,
2013-09-14 23:57:00,56.5,55.0,29.80,WNW,283,0.0,18.0,95,0.00,,,0.00,meteohub,2013-09-15 06:57:00,